createdAt,value
2023-11-17T00:05:30.030Z,1.00
2023-11-17T00:05:36.012Z,2.00
2023-11-17T00:05:41.693Z,3.00
2023-11-17T00:05:47.376Z,4.00
2023-11-17T00:05:53.061Z,5.00
2023-11-17T00:05:58.758Z,6.00
2023-11-17T00:06:32.398Z,12.00
2023-11-17T00:06:38.057Z,13.00
2023-11-17T00:06:43.765Z,14.00
2023-11-17T00:06:49.436Z,15.00
2023-11-17T00:06:55.117Z,16.00
2023-11-17T00:07:00.876Z,17.00
2023-11-17T00:07:34.468Z,23.00
2023-11-17T00:07:40.120Z,24.00
2023-11-17T00:07:45.792Z,25.00
2023-11-17T00:07:51.488Z,26.00
2023-11-17T00:07:57.155Z,27.00
2023-11-17T00:08:02.833Z,28.00
2023-11-17T00:08:36.390Z,34.00
2023-11-17T00:08:42.130Z,35.00
2023-11-17T00:08:47.767Z,36.00
2023-11-17T00:08:53.444Z,37.00
2023-11-17T00:08:59.130Z,38.00
2023-11-17T00:09:04.801Z,39.00
2023-11-17T00:09:38.411Z,45.00
2023-11-17T00:09:44.094Z,46.00
2023-11-17T00:09:49.860Z,47.00
2023-11-17T00:09:55.532Z,48.00
2023-11-17T00:10:01.216Z,49.00
2023-11-17T00:10:06.917Z,50.00
2023-11-17T00:10:41.293Z,56.00
2023-11-17T00:10:46.968Z,57.00
2023-11-17T00:10:52.646Z,58.00
2023-11-17T00:10:58.375Z,59.00
2023-11-17T00:11:04.019Z,60.00
2023-11-17T00:11:09.696Z,61.00
2023-11-17T00:11:43.271Z,67.00
2023-11-17T00:11:48.948Z,68.00
2023-11-17T00:11:54.629Z,69.00
2023-11-17T00:12:00.304Z,70.00
2023-11-17T00:12:06.053Z,71.00
2023-11-17T00:12:11.753Z,72.00
2023-11-17T00:12:45.369Z,78.00
2023-11-17T00:12:51.049Z,79.00
2023-11-17T00:12:56.738Z,80.00
2023-11-17T00:13:02.495Z,81.00
2023-11-17T00:13:08.236Z,82.00
2023-11-17T00:13:14.004Z,83.00
2023-11-17T00:13:47.497Z,89.00
2023-11-17T00:13:53.193Z,90.00
2023-11-17T00:13:58.864Z,91.00
2023-11-17T00:14:04.544Z,92.00
2023-11-17T00:14:10.232Z,93.00
2023-11-17T00:14:15.939Z,94.00
2023-11-17T00:14:49.536Z,100.00
2023-11-17T00:14:55.197Z,101.00
2023-11-17T00:15:00.874Z,102.00
2023-11-17T00:15:06.546Z,103.00
2023-11-17T00:15:12.253Z,104.00
2023-11-17T00:15:17.954Z,105.00
2023-11-17T00:15:51.578Z,111.00
2023-11-17T00:15:57.340Z,112.00
2023-11-17T00:16:02.990Z,113.00
2023-11-17T00:16:08.746Z,114.00
2023-11-17T00:16:14.422Z,115.00
2023-11-17T00:16:20.083Z,116.00
2023-11-17T00:16:53.791Z,122.00
2023-11-17T00:16:59.515Z,123.00
2023-11-17T00:17:05.200Z,124.00
2023-11-17T00:17:10.857Z,125.00
2023-11-17T00:17:16.537Z,126.00
2023-11-17T00:17:22.211Z,127.00
2023-11-17T00:17:56.233Z,133.00
2023-11-17T00:18:02.026Z,134.00
2023-11-17T00:18:07.680Z,135.00
2023-11-17T00:18:13.319Z,136.00
2023-11-17T00:18:19.882Z,137.00
2023-11-17T00:18:25.550Z,138.00
2023-11-17T00:18:59.197Z,144.00
2023-11-17T00:19:04.880Z,145.00
2023-11-17T00:19:10.642Z,146.00
2023-11-17T00:19:16.255Z,147.00
2023-11-17T00:19:21.973Z,148.00
2023-11-17T00:19:27.662Z,149.00
2023-11-17T00:20:01.204Z,155.00
2023-11-17T00:20:06.896Z,156.00
2023-11-17T00:20:12.607Z,157.00
2023-11-17T00:20:18.256Z,158.00
2023-11-17T00:20:23.934Z,159.00
2023-11-17T00:20:29.611Z,160.00
2023-11-17T00:21:03.180Z,166.00
2023-11-17T00:21:08.850Z,167.00
2023-11-17T00:21:14.529Z,168.00
2023-11-17T00:21:20.254Z,169.00
2023-11-17T00:21:25.902Z,170.00
2023-11-17T00:21:31.585Z,171.00
2023-11-17T00:22:05.185Z,177.00
2023-11-17T00:22:10.874Z,178.00
2023-11-17T00:22:16.543Z,179.00
2023-11-17T00:22:22.221Z,180.00
2023-11-17T00:22:27.918Z,181.00
2023-11-17T00:22:33.576Z,182.00
2023-11-17T00:23:07.178Z,188.00
2023-11-17T00:23:12.854Z,189.00
2023-11-17T00:23:18.536Z,190.00
2023-11-17T00:23:24.211Z,191.00
2023-11-17T00:23:29.908Z,192.00
2023-11-17T00:23:35.646Z,193.00
2023-11-17T00:25:46.098Z,1.00
2023-11-17T00:25:52.025Z,2.00
2023-11-17T00:25:57.703Z,3.00
2023-11-17T00:26:03.399Z,4.00
2023-11-17T00:26:09.059Z,5.00
2023-11-17T00:26:14.748Z,6.00
2023-11-17T00:26:48.289Z,12.00
2023-11-17T00:26:53.959Z,13.00
2023-11-17T00:26:59.638Z,14.00
2023-11-17T00:27:05.360Z,15.00
2023-11-17T00:27:11.033Z,16.00
2023-11-17T00:27:16.687Z,17.00
2023-11-17T00:27:50.274Z,23.00
2023-11-17T00:27:55.963Z,24.00
2023-11-17T00:28:01.659Z,25.00
2023-11-17T00:28:07.336Z,26.00
2023-11-17T00:28:13.005Z,27.00
2023-11-17T00:28:18.699Z,28.00
2023-11-17T00:28:52.247Z,34.00
2023-11-17T00:28:57.942Z,35.00
2023-11-17T00:29:03.597Z,36.00
2023-11-17T00:29:09.265Z,37.00
2023-11-17T00:29:14.951Z,38.00
2023-11-17T00:29:20.629Z,39.00
2023-11-17T00:29:54.216Z,45.00
2023-11-17T00:29:59.891Z,46.00
2023-11-17T00:30:05.572Z,47.00
2023-11-17T00:30:11.250Z,48.00
2023-11-17T00:30:17.019Z,49.00
2023-11-17T00:30:22.652Z,50.00
2023-11-17T00:30:56.245Z,56.00
2023-11-17T00:31:01.997Z,57.00
2023-11-17T00:31:07.638Z,58.00
2023-11-17T00:31:13.330Z,59.00
2023-11-17T00:31:19.088Z,60.00
2023-11-17T00:31:24.735Z,61.00
2023-11-17T00:31:58.308Z,67.00
2023-11-17T00:32:03.989Z,68.00
2023-11-17T00:32:09.663Z,69.00
2023-11-17T00:32:15.358Z,70.00
2023-11-17T00:32:21.078Z,71.00
2023-11-17T00:32:26.748Z,72.00
2023-11-17T00:33:00.375Z,78.00
2023-11-17T00:33:06.100Z,79.00
2023-11-17T00:33:11.721Z,80.00
2023-11-17T00:33:17.401Z,81.00
2023-11-17T00:33:23.078Z,82.00
2023-11-17T00:33:28.792Z,83.00
2023-11-17T00:34:02.539Z,89.00
2023-11-17T00:34:08.352Z,90.00
2023-11-17T00:34:14.077Z,91.00
2023-11-17T00:34:19.781Z,92.00
2023-11-17T00:34:25.496Z,93.00
2023-11-17T00:34:31.163Z,94.00
2023-11-17T00:35:04.970Z,100.00
2023-11-17T00:35:10.689Z,101.00
2023-11-17T00:35:16.340Z,102.00
2023-11-17T00:35:21.993Z,103.00
2023-11-17T00:35:27.661Z,104.00
2023-11-17T00:35:33.355Z,105.00
2023-11-17T00:36:06.898Z,111.00
2023-11-17T00:36:12.566Z,112.00
2023-11-17T00:36:18.255Z,113.00
2023-11-17T00:36:23.934Z,114.00
2023-11-17T00:36:29.612Z,115.00
2023-11-17T00:36:35.275Z,116.00
2023-11-17T00:37:09.106Z,122.00
2023-11-17T00:37:14.836Z,123.00
2023-11-17T00:37:20.529Z,124.00
2023-11-17T00:37:26.310Z,125.00
2023-11-17T00:37:32.001Z,126.00
2023-11-17T00:37:37.677Z,127.00
2023-11-17T00:38:11.242Z,133.00
2023-11-17T00:38:16.924Z,134.00
2023-11-17T00:38:22.600Z,135.00
2023-11-17T00:38:28.285Z,136.00
2023-11-17T00:38:33.964Z,137.00
2023-11-17T00:38:39.666Z,138.00
2023-11-17T00:39:13.244Z,144.00
2023-11-17T00:39:18.918Z,145.00
2023-11-17T00:39:24.601Z,146.00
2023-11-17T00:39:30.279Z,147.00
2023-11-17T00:39:35.961Z,148.00
2023-11-17T00:39:41.754Z,149.00
2023-11-17T00:40:15.296Z,155.00
2023-11-17T00:40:21.027Z,156.00
2023-11-17T00:40:26.702Z,157.00
2023-11-17T00:40:32.328Z,158.00
2023-11-17T00:40:38.008Z,159.00
2023-11-17T00:40:43.685Z,160.00
2023-11-17T00:41:24.614Z,166.00
2023-11-17T00:41:35.362Z,167.00
2023-11-17T00:41:41.087Z,168.00
2023-11-17T00:41:46.729Z,169.00
2023-11-17T00:41:52.397Z,170.00
2023-11-17T00:41:58.142Z,171.00
2023-11-17T00:42:20.535Z,175.00
2023-11-17T00:42:37.332Z,178.00
2023-11-17T00:42:43.039Z,179.00
2023-11-17T00:42:48.695Z,180.00
2023-11-17T00:42:54.464Z,181.00
2023-11-17T00:43:00.122Z,182.00
2023-11-17T00:43:22.606Z,186.00
2023-11-17T00:43:39.424Z,189.00
2023-11-17T00:43:45.098Z,190.00
2023-11-17T00:43:50.773Z,191.00
2023-11-17T00:43:56.514Z,192.00
2023-11-17T00:44:02.148Z,193.00
2023-11-17T00:44:24.570Z,197.00
2023-11-17T00:44:41.399Z,200.00
2023-11-17T00:44:47.088Z,201.00
2023-11-17T00:44:52.758Z,202.00
2023-11-17T00:44:58.458Z,203.00
2023-11-17T00:45:04.194Z,204.00
2023-11-17T00:45:26.548Z,208.00
2023-11-17T00:45:43.487Z,211.00
2023-11-17T00:45:49.291Z,212.00
2023-11-17T00:45:55.067Z,213.00
2023-11-17T00:46:00.837Z,214.00
2023-11-17T00:46:06.618Z,215.00
2023-11-17T00:46:30.006Z,219.00
2023-11-17T00:46:47.065Z,222.00
2023-11-17T00:46:52.856Z,223.00
2023-11-17T00:46:58.657Z,224.00
2023-11-17T00:47:04.474Z,225.00
2023-11-17T00:47:10.211Z,226.00
2023-11-17T00:47:32.735Z,230.00
2023-11-17T00:47:49.652Z,233.00
2023-11-17T00:47:55.304Z,234.00
2023-11-17T00:48:00.990Z,235.00
2023-11-17T00:48:06.668Z,236.00
2023-11-17T00:48:12.356Z,237.00
2023-11-17T00:48:34.722Z,241.00
2023-11-17T00:48:51.591Z,244.00
2023-11-17T00:48:57.379Z,245.00
2023-11-17T00:49:03.022Z,246.00
2023-11-17T00:49:08.694Z,247.00
2023-11-17T00:49:14.379Z,248.00
2023-11-17T00:49:36.809Z,252.00
2023-11-17T00:49:53.645Z,255.00
2023-11-17T00:49:59.387Z,256.00
2023-11-17T00:50:05.045Z,257.00
2023-11-17T00:50:10.722Z,258.00
2023-11-17T00:50:16.389Z,259.00
2023-11-17T00:50:38.827Z,263.00
2023-11-17T00:50:55.625Z,266.00
2023-11-17T00:51:01.303Z,267.00
2023-11-17T00:51:06.985Z,268.00
2023-11-17T00:51:12.673Z,269.00
2023-11-17T00:51:18.344Z,270.00
2023-11-17T00:51:40.752Z,274.00
2023-11-17T00:51:57.684Z,277.00
2023-11-17T00:52:03.407Z,278.00
2023-11-17T00:52:09.117Z,279.00
2023-11-17T00:52:14.793Z,280.00
2023-11-17T00:52:20.505Z,281.00
2023-11-17T00:52:43.407Z,285.00
2023-11-17T00:53:00.338Z,288.00
2023-11-17T00:53:06.015Z,289.00
2023-11-17T00:53:11.698Z,290.00
2023-11-17T00:53:17.382Z,291.00
2023-11-17T00:53:23.614Z,292.00
2023-11-17T00:53:46.216Z,296.00
2023-11-17T00:54:03.043Z,299.00
2023-11-17T00:54:08.715Z,300.00
2023-11-17T00:54:14.390Z,301.00
2023-11-17T00:54:20.089Z,302.00
2023-11-17T00:54:25.984Z,303.00
2023-11-17T00:54:48.472Z,307.00
2023-11-17T00:55:05.700Z,310.00
2023-11-17T00:55:11.387Z,311.00
2023-11-17T00:55:17.107Z,312.00
2023-11-17T00:55:22.806Z,313.00
2023-11-17T00:55:28.511Z,314.00
2023-11-17T00:56:03.151Z,1.00
2023-11-17T00:56:08.829Z,2.00
2023-11-17T00:56:14.520Z,3.00
2023-11-17T00:56:20.193Z,4.00
2023-11-17T00:56:25.886Z,5.00
2023-11-17T00:56:31.581Z,6.00
2023-11-17T00:57:05.159Z,12.00
2023-11-17T00:57:10.838Z,13.00
2023-11-17T00:57:16.510Z,14.00
2023-11-17T00:57:22.198Z,15.00
2023-11-17T00:57:27.886Z,16.00
2023-11-17T00:57:33.566Z,17.00
2023-11-17T00:58:07.114Z,23.00
2023-11-17T00:58:12.826Z,24.00
2023-11-17T00:58:18.551Z,25.00
2023-11-17T00:58:24.221Z,26.00
2023-11-17T00:58:29.868Z,27.00
2023-11-17T00:58:35.543Z,28.00
2023-11-17T00:59:09.093Z,34.00
2023-11-17T00:59:14.773Z,35.00
2023-11-17T00:59:20.451Z,36.00
2023-11-17T00:59:26.146Z,37.00
2023-11-17T00:59:31.828Z,38.00
2023-11-17T00:59:37.535Z,39.00
2023-11-17T01:00:11.174Z,45.00
2023-11-17T01:00:16.892Z,46.00
2023-11-17T01:00:22.535Z,47.00
2023-11-17T01:00:28.387Z,48.00
2023-11-17T01:00:34.055Z,49.00
2023-11-17T01:00:39.735Z,50.00
2023-11-17T01:01:13.497Z,56.00
2023-11-17T01:01:19.476Z,57.00
2023-11-17T01:01:25.196Z,58.00
2023-11-17T01:01:30.936Z,59.00
2023-11-17T01:01:36.613Z,60.00
2023-11-17T01:01:42.423Z,61.00
2023-11-17T01:02:16.127Z,67.00
2023-11-17T01:02:21.865Z,68.00
2023-11-17T01:02:27.606Z,69.00
2023-11-17T01:02:33.378Z,70.00
2023-11-17T01:02:39.088Z,71.00
2023-11-17T01:02:44.824Z,72.00
2023-11-17T01:03:18.436Z,78.00
2023-11-17T01:03:24.285Z,79.00
2023-11-17T01:03:29.974Z,80.00
2023-11-17T01:03:35.783Z,81.00
2023-11-17T01:03:41.482Z,82.00
2023-11-17T01:03:47.261Z,83.00
2023-11-17T01:04:20.810Z,89.00
2023-11-17T01:04:26.542Z,90.00
2023-11-17T01:04:32.255Z,91.00
2023-11-17T01:04:37.885Z,92.00
2023-11-17T01:04:43.572Z,93.00
2023-11-17T01:04:49.245Z,94.00
2023-11-17T01:05:22.808Z,100.00
2023-11-17T01:05:28.495Z,101.00
2023-11-17T01:05:34.216Z,102.00
2023-11-17T01:05:39.862Z,103.00
2023-11-17T01:05:45.543Z,104.00
2023-11-17T01:05:51.220Z,105.00
2023-11-17T01:06:24.791Z,111.00
2023-11-17T01:06:30.480Z,112.00
2023-11-17T01:06:36.150Z,113.00
2023-11-17T01:06:41.873Z,114.00
2023-11-17T01:06:47.568Z,115.00
2023-11-17T01:06:53.229Z,116.00
2023-11-17T01:07:26.835Z,122.00
2023-11-17T01:07:32.487Z,123.00
2023-11-17T01:07:38.167Z,124.00
2023-11-17T01:07:43.873Z,125.00
2023-11-17T01:07:49.572Z,126.00
2023-11-17T01:07:55.221Z,127.00
2023-11-17T01:08:28.796Z,133.00
2023-11-17T01:08:34.476Z,134.00
2023-11-17T01:08:40.150Z,135.00
2023-11-17T01:08:45.839Z,136.00
2023-11-17T01:08:51.503Z,137.00
2023-11-17T01:08:57.254Z,138.00
2023-11-17T01:09:30.832Z,144.00
2023-11-17T01:09:36.459Z,145.00
2023-11-17T01:09:42.143Z,146.00
2023-11-17T01:09:47.839Z,147.00
2023-11-17T01:09:53.609Z,148.00
2023-11-17T01:09:59.263Z,149.00
2023-11-17T01:10:32.931Z,155.00
2023-11-17T01:10:38.641Z,156.00
2023-11-17T01:10:44.359Z,157.00
2023-11-17T01:10:50.038Z,158.00
2023-11-17T01:10:55.717Z,159.00
2023-11-17T01:11:01.398Z,160.00
2023-11-17T01:11:35.014Z,166.00
2023-11-17T01:11:40.819Z,167.00
2023-11-17T01:11:46.569Z,168.00
2023-11-17T01:11:52.257Z,169.00
2023-11-17T01:11:57.945Z,170.00
2023-11-17T01:12:03.636Z,171.00
2023-11-17T01:12:37.197Z,177.00
2023-11-17T01:12:42.944Z,178.00
2023-11-17T01:12:48.750Z,179.00
2023-11-17T01:12:54.452Z,180.00
2023-11-17T01:13:00.174Z,181.00
2023-11-17T01:13:05.856Z,182.00
2023-11-17T01:13:39.448Z,188.00
2023-11-17T01:13:45.091Z,189.00
2023-11-17T01:13:50.788Z,190.00
2023-11-17T01:13:56.487Z,191.00
2023-11-17T01:14:02.148Z,192.00
2023-11-17T01:14:07.824Z,193.00
2023-11-17T01:14:42.037Z,199.00
2023-11-17T01:14:47.723Z,200.00
2023-11-17T01:14:53.408Z,201.00
2023-11-17T01:14:59.157Z,202.00
2023-11-17T01:15:04.817Z,203.00
2023-11-17T01:15:10.503Z,204.00
2023-11-17T01:15:44.132Z,210.00
2023-11-17T01:15:49.821Z,211.00
2023-11-17T01:15:55.487Z,212.00
2023-11-17T01:16:01.161Z,213.00
2023-11-17T01:16:06.937Z,214.00
2023-11-17T01:16:12.578Z,215.00
2023-11-17T01:16:46.282Z,221.00
2023-11-17T01:16:51.927Z,222.00
2023-11-17T01:16:57.615Z,223.00
2023-11-17T01:17:03.317Z,224.00
2023-11-17T01:17:08.954Z,225.00
2023-11-17T01:17:14.717Z,226.00
2023-11-17T01:17:48.304Z,232.00
2023-11-17T01:17:53.936Z,233.00
2023-11-17T01:17:59.663Z,234.00
2023-11-17T01:18:05.625Z,235.00
2023-11-17T01:18:11.298Z,236.00
2023-11-17T01:18:16.984Z,237.00
2023-11-17T01:18:50.615Z,243.00
2023-11-17T01:18:56.261Z,244.00
2023-11-17T01:19:01.929Z,245.00
2023-11-17T01:19:07.615Z,246.00
2023-11-17T01:19:13.386Z,247.00
2023-11-17T01:19:19.081Z,248.00
2023-11-17T01:19:52.626Z,254.00
2023-11-17T01:19:58.396Z,255.00
2023-11-17T01:20:04.035Z,256.00
2023-11-17T01:20:09.707Z,257.00
2023-11-17T01:20:15.425Z,258.00
2023-11-17T01:20:21.075Z,259.00
2023-11-17T01:20:54.694Z,265.00
2023-11-17T01:21:00.383Z,266.00
2023-11-17T01:21:06.096Z,267.00
2023-11-17T01:21:11.744Z,268.00
2023-11-17T01:21:17.425Z,269.00
2023-11-17T01:21:23.118Z,270.00
2023-11-17T01:21:56.757Z,276.00
2023-11-17T01:22:02.393Z,277.00
2023-11-17T01:22:08.127Z,278.00
2023-11-17T01:22:13.890Z,279.00
2023-11-17T01:22:19.640Z,280.00
2023-11-17T01:22:25.334Z,281.00
2023-11-17T01:22:58.868Z,287.00
2023-11-17T01:23:04.597Z,288.00
2023-11-17T01:23:10.298Z,289.00
2023-11-17T01:23:15.959Z,290.00
2023-11-17T01:23:21.628Z,291.00
2023-11-17T01:23:27.326Z,292.00
2023-11-17T01:24:00.914Z,298.00
2023-11-17T01:24:06.598Z,299.00
2023-11-17T01:24:12.338Z,300.00
2023-11-17T01:24:17.981Z,301.00
2023-11-17T01:24:23.650Z,302.00
2023-11-17T01:24:29.334Z,303.00
2023-11-17T01:25:02.924Z,309.00
2023-11-17T01:25:08.636Z,310.00
2023-11-17T01:25:14.346Z,311.00
2023-11-17T01:25:20.006Z,312.00
2023-11-17T01:25:25.680Z,313.00
2023-11-17T01:25:31.342Z,314.00
2023-11-17T01:26:04.971Z,320.00
2023-11-17T01:26:10.686Z,321.00
2023-11-17T01:26:16.341Z,322.00
2023-11-17T01:26:22.008Z,323.00
2023-11-17T01:26:27.693Z,324.00
2023-11-17T01:26:33.372Z,325.00
2023-11-17T01:27:06.941Z,331.00
2023-11-17T01:27:12.619Z,332.00
2023-11-17T01:27:18.295Z,333.00
2023-11-17T01:27:23.979Z,334.00
2023-11-17T01:27:29.664Z,335.00
2023-11-17T01:27:35.343Z,336.00
2023-11-17T01:28:08.964Z,342.00
2023-11-17T01:28:14.714Z,343.00
2023-11-17T01:28:20.390Z,344.00
2023-11-17T01:28:26.073Z,345.00
2023-11-17T01:28:31.725Z,346.00
2023-11-17T01:28:37.422Z,347.00
2023-11-17T01:29:10.949Z,353.00
2023-11-17T01:29:16.617Z,354.00
2023-11-17T01:29:22.297Z,355.00
2023-11-17T01:29:27.985Z,356.00
2023-11-17T01:29:33.662Z,357.00
2023-11-17T01:29:39.337Z,358.00
2023-11-17T01:30:12.904Z,364.00
2023-11-17T01:30:18.588Z,365.00
2023-11-17T01:30:24.984Z,366.00
2023-11-17T01:30:30.740Z,367.00
2023-11-17T01:30:36.419Z,368.00
2023-11-17T01:30:42.107Z,369.00
2023-11-17T01:31:15.729Z,375.00
2023-11-17T01:31:21.411Z,376.00
2023-11-17T01:31:27.049Z,377.00
2023-11-17T01:31:32.728Z,378.00
2023-11-17T01:31:38.407Z,379.00
2023-11-17T01:31:44.083Z,380.00
2023-11-17T01:32:17.633Z,386.00
2023-11-17T01:32:23.322Z,387.00
2023-11-17T01:32:29.018Z,388.00
2023-11-17T01:32:34.726Z,389.00
2023-11-17T01:32:40.413Z,390.00
2023-11-17T01:32:46.060Z,391.00
2023-11-17T01:33:19.605Z,397.00
2023-11-17T01:33:25.294Z,398.00
2023-11-17T01:33:30.974Z,399.00
2023-11-17T01:33:36.661Z,400.00
2023-11-17T01:33:42.343Z,401.00
2023-11-17T01:33:48.058Z,402.00
2023-11-17T01:34:21.670Z,408.00
2023-11-17T01:34:27.359Z,409.00
2023-11-17T01:34:33.067Z,410.00
2023-11-17T01:34:38.850Z,411.00
2023-11-17T01:34:44.525Z,412.00
2023-11-17T01:34:50.218Z,413.00
2023-11-17T01:35:23.722Z,419.00
2023-11-17T01:35:29.415Z,420.00
2023-11-17T01:35:35.106Z,421.00
2023-11-17T01:35:40.781Z,422.00
2023-11-17T01:35:46.469Z,423.00
2023-11-17T01:35:52.181Z,424.00
2023-11-17T01:36:25.687Z,430.00
2023-11-17T01:36:31.376Z,431.00
2023-11-17T01:36:37.052Z,432.00
2023-11-17T01:36:42.738Z,433.00
2023-11-17T01:36:48.434Z,434.00
2023-11-17T01:36:54.146Z,435.00
2023-11-17T01:37:27.666Z,441.00
2023-11-17T01:37:33.356Z,442.00
2023-11-17T01:37:39.026Z,443.00
2023-11-17T01:37:44.732Z,444.00
2023-11-17T01:37:50.406Z,445.00
2023-11-17T01:37:56.055Z,446.00
2023-11-17T01:38:32.352Z,452.00
2023-11-17T01:38:46.946Z,453.00
2023-11-17T01:38:57.904Z,454.00
2023-11-17T01:39:03.582Z,455.00
2023-11-17T01:39:09.259Z,456.00
2023-11-17T01:39:14.943Z,457.00
2023-11-17T01:39:31.783Z,460.00
2023-11-17T01:39:43.056Z,462.00
2023-11-17T01:39:59.940Z,465.00
2023-11-17T01:40:05.646Z,466.00
2023-11-17T01:40:11.356Z,467.00
2023-11-17T01:40:17.078Z,468.00
2023-11-17T01:40:33.864Z,471.00
2023-11-17T01:40:45.098Z,473.00
2023-11-17T01:41:01.944Z,476.00
2023-11-17T01:41:07.627Z,477.00
2023-11-17T01:41:13.310Z,478.00
2023-11-17T01:41:18.993Z,479.00
2023-11-17T01:41:35.808Z,482.00
2023-11-17T01:41:47.070Z,484.00
2023-11-17T01:42:03.884Z,487.00
2023-11-17T01:42:09.570Z,488.00
2023-11-17T01:42:15.261Z,489.00
2023-11-17T01:42:20.933Z,490.00
2023-11-17T01:42:37.761Z,493.00
2023-11-17T01:42:49.050Z,495.00
2023-11-17T01:43:05.885Z,498.00
2023-11-17T01:43:11.563Z,499.00
2023-11-17T01:43:17.288Z,500.00
2023-11-17T01:43:22.957Z,501.00
2023-11-17T01:43:39.743Z,504.00
2023-11-17T01:43:51.021Z,506.00
2023-11-17T01:44:07.854Z,509.00
2023-11-17T01:44:13.531Z,510.00
2023-11-17T01:44:19.307Z,511.00
2023-11-17T01:44:24.913Z,512.00
2023-11-17T01:44:41.743Z,515.00
2023-11-17T01:44:53.063Z,517.00
2023-11-17T01:45:09.871Z,520.00
2023-11-17T01:45:15.533Z,521.00
2023-11-17T01:45:21.202Z,522.00
2023-11-17T01:45:26.929Z,523.00
2023-11-17T01:45:44.068Z,526.00
2023-11-17T01:45:55.407Z,528.00
2023-11-17T01:46:12.260Z,531.00
2023-11-17T01:46:18.060Z,532.00
2023-11-17T01:46:23.751Z,533.00
2023-11-17T01:46:29.474Z,534.00
2023-11-17T01:46:46.433Z,537.00
2023-11-17T01:46:57.707Z,539.00
2023-11-17T01:47:14.556Z,542.00
2023-11-17T01:47:20.240Z,543.00
2023-11-17T01:47:25.929Z,544.00
2023-11-17T01:47:31.759Z,545.00
2023-11-17T01:47:48.650Z,548.00
2023-11-17T01:47:59.935Z,550.00
2023-11-17T01:48:16.742Z,553.00
2023-11-17T01:48:22.397Z,554.00
2023-11-17T01:48:28.128Z,555.00
2023-11-17T01:48:33.815Z,556.00
2023-11-17T01:48:50.737Z,559.00
2023-11-17T01:49:01.960Z,561.00
2023-11-17T01:49:18.795Z,564.00
2023-11-17T01:49:24.502Z,565.00
2023-11-17T01:49:30.150Z,566.00
2023-11-17T01:49:35.834Z,567.00
2023-11-17T01:49:52.657Z,570.00
2023-11-17T01:50:03.937Z,572.00
2023-11-17T01:50:20.800Z,575.00
2023-11-17T01:50:26.508Z,576.00
2023-11-17T01:50:33.190Z,577.00
2023-11-17T01:50:38.855Z,578.00
2023-11-17T01:50:55.661Z,581.00
2023-11-17T01:51:06.949Z,583.00
2023-11-17T01:51:23.779Z,586.00
2023-11-17T01:51:29.457Z,587.00
2023-11-17T01:51:35.145Z,588.00
2023-11-17T01:51:40.861Z,589.00
2023-11-17T01:51:57.695Z,592.00
2023-11-17T01:52:08.990Z,594.00
2023-11-17T01:52:25.854Z,597.00
2023-11-17T01:52:31.523Z,598.00
2023-11-17T01:52:37.197Z,599.00
2023-11-17T01:52:42.876Z,600.00
2023-11-17T01:52:59.789Z,603.00
2023-11-17T01:53:11.031Z,605.00
2023-11-17T01:53:27.878Z,608.00
2023-11-17T01:53:33.548Z,609.00
2023-11-17T01:53:39.238Z,610.00
2023-11-17T01:53:44.935Z,611.00
2023-11-17T01:54:01.762Z,614.00
2023-11-17T01:54:13.047Z,616.00
2023-11-17T01:54:29.922Z,619.00
2023-11-17T01:54:35.644Z,620.00
2023-11-17T01:54:41.355Z,621.00
2023-11-17T01:54:47.012Z,622.00
2023-11-17T01:55:03.881Z,625.00
2023-11-17T01:55:15.226Z,627.00
2023-11-17T01:55:32.070Z,630.00
2023-11-17T01:55:37.771Z,631.00
2023-11-17T01:55:43.438Z,632.00
2023-11-17T01:55:49.113Z,633.00
2023-11-17T01:56:05.981Z,636.00
2023-11-17T01:56:17.276Z,638.00
2023-11-17T01:56:34.089Z,641.00
2023-11-17T01:56:39.765Z,642.00
2023-11-17T01:56:45.441Z,643.00
2023-11-17T01:56:51.123Z,644.00
2023-11-17T01:57:07.956Z,647.00
2023-11-17T01:57:19.220Z,649.00
2023-11-17T01:57:36.056Z,652.00
2023-11-17T01:57:41.760Z,653.00
2023-11-17T01:57:47.474Z,654.00
2023-11-17T01:57:53.145Z,655.00
2023-11-17T01:58:09.961Z,658.00
2023-11-17T01:58:21.273Z,660.00
2023-11-17T01:58:38.049Z,663.00
2023-11-17T01:58:43.733Z,664.00
2023-11-17T01:58:49.418Z,665.00
2023-11-17T01:58:55.096Z,666.00
2023-11-17T01:59:11.976Z,669.00
2023-11-17T01:59:23.257Z,671.00
2023-11-17T01:59:40.092Z,674.00
2023-11-17T01:59:45.812Z,675.00
2023-11-17T01:59:51.452Z,676.00
2023-11-17T01:59:57.131Z,677.00
2023-11-17T05:55:54.821Z,1.00
2023-11-17T05:56:00.805Z,2.00
2023-11-17T05:56:06.482Z,3.00
2023-11-17T05:56:12.160Z,4.00
2023-11-17T05:56:17.834Z,5.00
2023-11-17T05:56:23.534Z,6.00
2023-11-17T05:56:57.077Z,12.00
2023-11-17T05:57:02.757Z,13.00
2023-11-17T05:57:08.429Z,14.00
2023-11-17T05:57:14.126Z,15.00
2023-11-17T05:57:19.807Z,16.00
2023-11-17T05:57:25.506Z,17.00
2023-11-17T05:57:59.124Z,23.00
2023-11-17T05:58:04.837Z,24.00
2023-11-17T05:58:10.602Z,25.00
2023-11-17T05:58:16.256Z,26.00
2023-11-17T05:58:22.137Z,27.00
2023-11-17T05:58:27.795Z,28.00
2023-11-17T05:59:02.833Z,34.00
2023-11-17T05:59:08.573Z,35.00
2023-11-17T05:59:14.222Z,36.00
2023-11-17T05:59:19.982Z,37.00
2023-11-17T05:59:25.601Z,38.00
2023-11-17T05:59:31.457Z,39.00
2023-11-17T06:00:05.306Z,45.00
2023-11-17T06:00:11.003Z,46.00
2023-11-17T06:00:16.692Z,47.00
2023-11-17T06:00:22.400Z,48.00
2023-11-17T06:00:28.277Z,49.00
2023-11-17T06:00:34.027Z,50.00
2023-11-17T06:01:07.567Z,56.00
2023-11-17T06:01:13.249Z,57.00
2023-11-17T06:01:18.943Z,58.00
2023-11-17T06:01:24.823Z,59.00
2023-11-17T06:01:30.663Z,60.00
2023-11-17T06:01:36.380Z,61.00
2023-11-17T06:02:09.986Z,67.00
2023-11-17T06:02:15.638Z,68.00
2023-11-17T06:02:21.339Z,69.00
2023-11-17T06:02:27.044Z,70.00
2023-11-17T06:02:32.745Z,71.00
2023-11-17T06:02:38.464Z,72.00
2023-11-17T06:03:12.023Z,78.00
2023-11-17T06:03:17.766Z,79.00
2023-11-17T06:03:23.504Z,80.00
2023-11-17T06:03:29.214Z,81.00
2023-11-17T06:03:34.902Z,82.00
2023-11-17T06:03:40.568Z,83.00
2023-11-17T06:04:14.253Z,89.00
2023-11-17T06:04:20.005Z,90.00
2023-11-17T06:04:25.797Z,91.00
2023-11-17T06:04:31.605Z,92.00
2023-11-17T06:04:37.398Z,93.00
2023-11-17T06:04:43.133Z,94.00
2023-11-17T06:05:16.744Z,100.00
2023-11-17T06:05:22.427Z,101.00
2023-11-17T06:05:28.117Z,102.00
2023-11-17T06:05:33.791Z,103.00
2023-11-17T06:05:39.461Z,104.00
2023-11-17T06:05:45.146Z,105.00
2023-11-17T06:06:18.731Z,111.00
2023-11-17T06:06:24.399Z,112.00
2023-11-17T06:06:30.092Z,113.00
2023-11-17T06:06:35.768Z,114.00
2023-11-17T06:06:41.466Z,115.00
2023-11-17T06:06:49.680Z,116.00
2023-11-17T06:07:23.333Z,122.00
2023-11-17T06:07:29.064Z,123.00
2023-11-17T06:07:34.716Z,124.00
2023-11-17T06:07:40.383Z,125.00
2023-11-17T06:07:46.074Z,126.00
2023-11-17T06:07:51.766Z,127.00
2023-11-17T06:08:27.911Z,133.00
2023-11-17T06:08:33.728Z,134.00
2023-11-17T06:08:39.365Z,135.00
2023-11-17T06:08:45.023Z,136.00
2023-11-17T06:08:50.700Z,137.00
2023-11-17T06:08:56.381Z,138.00
2023-11-17T06:09:29.947Z,144.00
2023-11-17T06:09:35.661Z,145.00
2023-11-17T06:09:41.337Z,146.00
2023-11-17T06:09:47.030Z,147.00
2023-11-17T06:09:52.728Z,148.00
2023-11-17T06:09:58.412Z,149.00
2023-11-17T06:10:32.107Z,155.00
2023-11-17T06:10:37.899Z,156.00
2023-11-17T06:10:43.556Z,157.00
2023-11-17T06:10:49.273Z,158.00
2023-11-17T06:10:57.505Z,159.00
2023-11-17T06:11:03.197Z,160.00
2023-11-17T06:11:32.778Z,165.00
2023-11-17T06:11:38.448Z,166.00
2023-11-17T06:11:44.128Z,167.00
2023-11-17T06:11:49.815Z,168.00
2023-11-17T09:30:06.019Z,1.00
2023-11-17T09:30:11.573Z,2.00
2023-11-17T09:30:17.108Z,3.00
2023-11-17T09:30:22.755Z,4.00
2023-11-17T09:30:28.258Z,5.00
2023-11-17T09:30:33.830Z,6.00
2023-11-17T09:31:06.473Z,12.00
2023-11-17T09:31:11.990Z,13.00
2023-11-17T09:31:17.528Z,14.00